Relevés horaires Bierset (Belgique)


Relevés horaires à Bierset - Mardi 06 Juin 2023
Heure UTC1 Température [°C] Vent [km/h] Hum. [%] Pres.4 [hPa] Visi. [Km] Nébu. [octa] Préc.5 [mm] Cond.
2m. Res. Ros. Dir.2 Vit. Moy. Raf.3
23:00 16.4 16.4 7.9 NNE 3.7 7.4 18.5 57 1019.4(0.5/3h) 30 6/8 -- --
22:00 17.5 17.5 7.3 NE 7.4 7.4 18.5 51 1019.3(0.9/3h) 30 6/8 -- --
21:00 17.9 17.9 7.7 NE 5.6 9.3 14.8 51 1019.2(1.1/3h) 30 6/8 -- --
20:00 20.9 20.9 7.3 ENE 7.4 9.3 14.8 41 1018.6(0.7/3h) 30 5/8 -- --
19:00 21.5 21.5 8.7 NE 9.3 9.3 14.8 44 1018(-0.1/3h) 30 5/8 -- --
18:00 23.0 23.0 6.1 NE 7.4 11.1 16.7 34 1017.7(-0.3/3h) 30 4/8 0/12h
--
17:00 23.6 23.6 7.1 NNE 9.3 9.3 14.8 35 1017.7(-0.6/3h) 30 3/8 -- --
16:00 24.1 24.1 6.2 NE 9.3 11.1 14.8 32 1017.7(-0.8/3h) 30 1/8 -- --
15:00 24.2 24.2 6.9 NE 9.3 11.1 16.7 33 1018(-1.0/3h) 30 1/8 -- --
14:00 24.3 24.3 6.7 N 9.3 11.1 16.7 32 1018.3(-1.1/3h) 30 1/8 -- --
13:00 23.8 23.8 7.7 N 9.3 9.3 16.7 36 1018.5(-1.0/3h) 10 1/8 -- --
12:00 22.1 22.1 10.9 NNE 7.4 9.3 13.0 49 1019.1(-0.6/3h) 10 0/8 0/6h
--
11:00 20.7 20.7 11.6 NNE 5.6 7.4 13.0 56 1019.6(-0.2/3h) 10 0/8 -- --
10:00 18.6 18.6 11.8 NNE 7.4 7.4 13.0 65 1019.9(0.0/3h) 10 0/8 -- --
09:00 17.1 17.1 11.6 NNE 5.6 5.6 9.3 70 1020(0.2/3h) 10 0/8 -- --
08:00 15.2 15.2 11.2 NNE 5.6 5.6 9.3 77 1020.2(0.4/3h) 10 0/8 -- --
07:00 13.4 13.4 10.8 N 5.6 5.6 9.3 84 1020.3(0.3/3h) 10 1/8 -- --
06:00 11.9 11.8 10.2 N 5.6 5.6 7.4 89 1020.3(0.3/3h) 9 1/8 0/12h
--
05:00 10.7 10.4 9.5 N 5.6 5.6 7.4 92 1020.2(0.3/3h) 9 0/8 -- --
04:00 9.8 9.8 9.0 N 3.7 3.7 5.6 95 1020.3(-0.1/3h) 9 0/8 -- --
03:00 10.8 10.8 9.5 NNO 3.7 3.7 5.6 92 1020(0.0/3h) 25 0/8 -- --
02:00 11.0 11.0 9.4 NNO 1.9 1.9 5.6 90 1019.9(-0.2/3h) 25 0/8 -- --
01:00 11.9 11.9 9.8 N 1.9 3.7 5.6 87 1020(0.1/3h) 25 0/8 -- --
00:00 12.9 12.9 10.1 N 3.7 9.3 13.0 83 1019.9(0.3/3h) 25 0/8 0/6h
0/24h
--

1 Coordinated Universal Time. Actuellement il est 18:00 locale et 16:00 UTC.

2 Le vent souffle depuis la direction indiquée vers la direction oposée.

3 Les rafales max. sont disponible 40 min après l'heure du relevé.

4 Pour les stations d'altitude (plus de 600m) le géopotentiel du niveau le plus proche de la pression obligatoire est indiqué.

5 Les stations disposant d'un diffuseur peuvent indiquer "trace". Cela signifie que des précipitations ont touchés le sol mais que la quantité est inférieure à 0.1 mm.

Récapitulatif de la journée
Température [°C] Vent [km/h] Ensoleillement4 [h] Precipitations totale5 [mm] Pression [Hpa]
Min1 Max.2 Moy.3 Max. Min Max.
9.8 24.7 7.5 18.5 0 h 0 min 0 1017.7 1020.3

1 Température minimale relevée entre 18:00 UTC la veille et 18:00 UTC le jour donné.

2 Température maximale relevée entre 06:00 UTC le jour donné et 06:00 UTC le lendemain.

3 Vent moyen de la journée basé sur les relevés horaires.

4 Ensoleillement en heures relevé entre 06:00 UTC la veille et 06:00 UTC le jour donné.

5 Précipitations totales tombées entre 06:00 UTC la jour donné et 06:00 UTC le lendemain.

Graphiques horaires